Terminal Aerodrome Forecast
Issued by NWS

Home | Current Version | Previous Version | Text Only | Print | Product List | Glossary On
Versions: 1 2 3 4 5 6 7 8 9 10 11 12
355
FTPA31 PHFO 222341
TAFHLI
TAF
PHLI 222341Z 2300/2324 05013KT P6SM FEW025 SCT040
     FM231800 05010KT P6SM SCT025 BKN040=

USA.gov is the U.S. government's official web portal to all federal, state and local government web resources and services.